createdAt,value
2023-04-12T00:02:22.226Z,99269.91
2023-04-12T00:04:55.357Z,99257.19
2023-04-12T00:07:24.525Z,99257.19
2023-04-12T00:09:51.776Z,99251.66
2023-04-12T00:12:19.206Z,99245.50
2023-04-12T00:14:46.846Z,99236.03
2023-04-12T00:17:13.912Z,99225.56
2023-04-12T00:19:41.775Z,99228.66
2023-04-12T00:22:09.661Z,99234.38
2023-04-12T00:24:40.827Z,99233.16
2023-04-12T00:27:08.556Z,99236.66
2023-04-12T00:29:36.390Z,99238.50
2023-04-12T00:32:05.414Z,99232.94
2023-04-12T00:34:32.449Z,99234.78
2023-04-12T00:37:01.184Z,99239.50
2023-04-12T00:39:28.418Z,99232.53
2023-04-12T00:41:57.615Z,99236.22
2023-04-12T00:44:24.720Z,99235.63
2023-04-12T00:46:51.883Z,99230.69
2023-04-12T00:49:18.950Z,99227.63
2023-04-12T00:51:46.090Z,99236.22
2023-04-12T00:54:14.636Z,99230.28
2023-04-12T00:56:41.767Z,99235.19
2023-04-12T00:59:08.910Z,99227.00
2023-04-12T01:01:38.148Z,99212.44
2023-04-12T01:04:05.576Z,99205.03
2023-04-12T01:07:03.430Z,99206.50
2023-04-12T01:09:59.468Z,99211.59
2023-04-12T01:13:30.255Z,99205.84
2023-04-12T01:16:17.356Z,99200.13
2023-04-12T01:18:50.477Z,99194.16
2023-04-12T01:21:45.140Z,99188.81
2023-04-12T01:24:46.755Z,99184.94
2023-04-12T01:27:40.007Z,99181.00
2023-04-12T01:30:08.444Z,99173.44
2023-04-12T01:32:38.310Z,99170.34
2023-04-12T01:35:08.744Z,99170.56
2023-04-12T01:37:36.811Z,99164.81
2023-04-12T01:40:09.042Z,99158.66
2023-04-12T01:42:36.069Z,99142.25
2023-04-12T01:45:03.951Z,99141.22
2023-04-12T01:47:31.147Z,99127.50
2023-04-12T01:50:23.657Z,99127.69
2023-04-12T01:53:13.305Z,99123.38
2023-04-12T01:55:45.692Z,99123.56
2023-04-12T01:58:14.760Z,99121.13
2023-04-12T02:00:44.343Z,99109.00
2023-04-12T02:03:12.776Z,99111.66
2023-04-12T02:05:40.261Z,99099.97
2023-04-12T02:08:07.443Z,99096.09
2023-04-12T02:10:36.580Z,99077.03
2023-04-12T02:13:04.170Z,99077.44
2023-04-12T02:15:31.902Z,99070.88
2023-04-12T02:18:00.358Z,99075.81
2023-04-12T02:20:28.185Z,99066.34
2023-04-12T02:22:55.281Z,99063.50
2023-04-12T02:25:22.319Z,99061.00
2023-04-12T02:27:49.257Z,99049.34
2023-04-12T02:30:16.436Z,99054.84
2023-04-12T02:32:47.191Z,99051.38
2023-04-12T02:35:22.659Z,99054.44
2023-04-12T02:37:54.843Z,99044.03
2023-04-12T02:40:24.000Z,99038.06
2023-04-12T02:42:51.382Z,99032.34
2023-04-12T02:45:18.483Z,99029.03
2023-04-12T02:47:45.780Z,99020.22
2023-04-12T02:50:13.212Z,99013.47
2023-04-12T02:52:52.294Z,99008.53
2023-04-12T02:55:19.421Z,99010.59
2023-04-12T02:57:47.569Z,98999.94
2023-04-12T03:00:16.696Z,99002.00
2023-04-12T03:02:52.415Z,98993.41
2023-04-12T03:05:24.140Z,98999.28
2023-04-12T03:07:51.839Z,98995.81
2023-04-12T03:10:23.662Z,98982.09
2023-04-12T03:12:59.696Z,98982.28
2023-04-12T03:15:33.700Z,98982.50
2023-04-12T03:18:01.496Z,98976.56
2023-04-12T03:20:33.450Z,98959.97
2023-04-12T03:23:06.976Z,98962.03
2023-04-12T03:25:40.850Z,98959.94
2023-04-12T03:28:29.108Z,98955.06
2023-04-12T03:30:57.300Z,98951.75
2023-04-12T03:33:30.031Z,98956.25
2023-04-12T03:36:02.477Z,98944.19
2023-04-12T03:38:31.505Z,98932.72
2023-04-12T03:40:59.365Z,98940.50
2023-04-12T03:43:37.253Z,98930.28
2023-04-12T03:46:09.292Z,98915.34
2023-04-12T03:48:37.723Z,98911.03
2023-04-12T03:51:08.257Z,98914.72
2023-04-12T03:53:39.292Z,98896.31
2023-04-12T03:56:08.229Z,98897.34
2023-04-12T03:58:35.989Z,98890.19
2023-04-12T04:01:07.296Z,98890.19
2023-04-12T04:03:36.778Z,98877.72
2023-04-12T04:06:17.344Z,98864.81
2023-04-12T04:08:44.932Z,98866.84
2023-04-12T04:11:13.749Z,98859.91
2023-04-12T04:13:46.470Z,98866.84
2023-04-12T04:16:18.232Z,98849.28
2023-04-12T04:18:45.822Z,98845.78
2023-04-12T04:21:15.254Z,98841.28
2023-04-12T04:23:44.874Z,98840.69
2023-04-12T04:26:12.429Z,98831.06
2023-04-12T04:28:46.672Z,98834.94
2023-04-12T04:31:18.076Z,98824.31
2023-04-12T04:33:49.386Z,98807.53
2023-04-12T04:36:16.604Z,98812.03
2023-04-12T04:38:49.383Z,98810.81
2023-04-12T04:41:27.179Z,98796.09
2023-04-12T04:44:00.462Z,98795.50
2023-04-12T04:46:32.049Z,98799.19
2023-04-12T04:49:00.000Z,98797.34
2023-04-12T04:51:27.541Z,98792.84
2023-04-12T04:53:56.791Z,98798.75
2023-04-12T04:56:25.082Z,98791.59
2023-04-12T04:58:56.158Z,98786.28
2023-04-12T05:01:28.246Z,98792.63
2023-04-12T05:03:57.091Z,98789.16
2023-04-12T05:06:27.217Z,98792.03
2023-04-12T05:08:54.412Z,98784.88
2023-04-12T05:11:22.655Z,98794.69
2023-04-12T05:13:51.305Z,98781.38
2023-04-12T05:16:18.421Z,98789.97
2023-04-12T05:18:45.982Z,98778.53
2023-04-12T05:21:13.151Z,98774.84
2023-04-12T05:23:46.844Z,98765.03
2023-04-12T05:26:14.128Z,98769.53
2023-04-12T05:28:45.251Z,98773.19
2023-04-12T05:31:13.061Z,98759.72
2023-04-12T05:33:40.157Z,98757.25
2023-04-12T05:36:07.668Z,98749.91
2023-04-12T05:38:34.997Z,98743.38
2023-04-12T05:41:05.929Z,98741.53
2023-04-12T05:43:34.152Z,98729.88
2023-04-12T05:46:02.108Z,98740.28
2023-04-12T05:48:29.398Z,98736.81
2023-04-12T05:50:58.073Z,98731.50
2023-04-12T05:53:25.021Z,98720.66
2023-04-12T05:55:54.189Z,98713.50
2023-04-12T05:58:21.796Z,98711.47
2023-04-12T06:00:54.204Z,98705.94
2023-04-12T06:03:25.575Z,98706.16
2023-04-12T06:05:56.274Z,98691.63
2023-04-12T06:08:24.439Z,98675.47
2023-04-12T06:10:51.435Z,98671.19
2023-04-12T06:13:18.636Z,98661.16
2023-04-12T06:15:46.010Z,98661.16
2023-04-12T06:18:13.365Z,98657.50
2023-04-12T06:20:40.787Z,98648.50
2023-04-12T06:23:08.257Z,98643.97
2023-04-12T06:25:35.977Z,98653.59
2023-04-12T06:28:04.821Z,98642.75
2023-04-12T06:30:35.429Z,98636.22
2023-04-12T06:33:02.467Z,98637.03
2023-04-12T06:35:29.633Z,98641.31
2023-04-12T06:37:56.647Z,98632.53
2023-04-12T06:40:23.810Z,98628.63
2023-04-12T06:42:50.738Z,98623.09
2023-04-12T06:45:22.827Z,98612.25
2023-04-12T06:47:49.828Z,98618.19
2023-04-12T06:50:18.383Z,98610.00
2023-04-12T06:52:45.551Z,98614.28
2023-04-12T06:55:12.493Z,98605.50
2023-04-12T06:57:41.474Z,98604.47
2023-04-12T07:00:09.293Z,98589.94
2023-04-12T07:02:36.398Z,98588.91
2023-04-12T07:05:03.448Z,98579.69
2023-04-12T07:07:30.517Z,98575.19
2023-04-12T07:09:57.498Z,98572.34
2023-04-12T07:12:24.460Z,98571.91
2023-04-12T07:14:51.373Z,98573.97
2023-04-12T07:17:18.415Z,98563.53
2023-04-12T07:19:45.751Z,98556.16
2023-04-12T07:22:14.135Z,98554.69
2023-04-12T07:24:41.255Z,98552.44
2023-04-12T07:27:08.177Z,98536.84
2023-04-12T07:29:35.180Z,98539.31
2023-04-12T07:32:04.522Z,98526.63
2023-04-12T07:34:31.757Z,98526.19
2023-04-12T07:37:00.870Z,98533.97
2023-04-12T07:39:29.657Z,98518.59
2023-04-12T07:41:57.000Z,98512.25
2023-04-12T07:44:24.002Z,98514.50
2023-04-12T07:46:51.094Z,98504.44
2023-04-12T07:49:18.100Z,98492.75
2023-04-12T07:51:45.081Z,98481.69
2023-04-12T07:54:13.150Z,98484.16
2023-04-12T07:56:40.219Z,98484.28
2023-04-12T07:59:07.551Z,98479.19
2023-04-12T08:01:34.542Z,98483.66
2023-04-12T08:04:02.141Z,98477.53
2023-04-12T08:06:32.394Z,98484.63
2023-04-12T08:09:00.978Z,98483.59
2023-04-12T08:11:27.929Z,98477.03
2023-04-12T08:13:54.967Z,98473.78
2023-04-12T08:16:22.128Z,98467.81
2023-04-12T08:18:49.097Z,98461.84
2023-04-12T08:21:16.076Z,98465.50
2023-04-12T08:23:43.027Z,98480.63
2023-04-12T08:26:10.317Z,98461.78
2023-04-12T08:28:39.524Z,98477.75
2023-04-12T08:31:07.455Z,98459.72
2023-04-12T08:33:34.555Z,98445.59
2023-04-12T08:36:01.923Z,98440.19
2023-04-12T08:38:44.248Z,98441.16
2023-04-12T08:41:13.491Z,98432.88
2023-04-12T08:43:50.850Z,98433.06
2023-04-12T08:46:18.183Z,98435.56
2023-04-12T08:48:48.613Z,98432.00
2023-04-12T08:51:18.810Z,98431.28
2023-04-12T08:53:45.883Z,98439.41
2023-04-12T08:56:14.143Z,98439.56
2023-04-12T08:58:51.045Z,98443.19
2023-04-12T09:01:20.671Z,98445.63
2023-04-12T09:03:48.038Z,98433.47
2023-04-12T09:06:15.595Z,98434.66
2023-04-12T09:08:57.133Z,98434.19
2023-04-12T09:11:27.572Z,98435.84
2023-04-12T09:13:56.734Z,98432.25
2023-04-12T09:16:42.388Z,98428.59
2023-04-12T09:19:09.789Z,98418.94
2023-04-12T09:21:37.386Z,98407.38
2023-04-12T09:24:13.987Z,98411.44
2023-04-12T09:26:41.705Z,98399.97
2023-04-12T09:29:26.798Z,98400.31
2023-04-12T09:32:11.999Z,98407.66
2023-04-12T09:34:39.520Z,98404.75
2023-04-12T09:37:15.899Z,98398.16
2023-04-12T09:39:43.529Z,98388.88
2023-04-12T09:42:25.676Z,98396.06
2023-04-12T09:45:01.556Z,98394.22
2023-04-12T09:47:40.186Z,98380.81
2023-04-12T09:50:09.669Z,98378.72
2023-04-12T09:52:38.921Z,98377.81
2023-04-12T09:55:12.955Z,98382.09
2023-04-12T09:57:45.242Z,98372.38
2023-04-12T10:00:17.734Z,98366.81
2023-04-12T10:02:49.025Z,98380.97
2023-04-12T10:05:20.782Z,98373.56
2023-04-12T10:07:48.235Z,98353.47
2023-04-12T10:10:18.463Z,98354.88
2023-04-12T10:12:48.963Z,98358.94
2023-04-12T10:15:21.162Z,98361.38
2023-04-12T10:17:55.261Z,98366.03
2023-04-12T10:20:26.095Z,98357.56
2023-04-12T10:22:54.478Z,98356.63
2023-04-12T10:25:27.281Z,98351.66
2023-04-12T10:27:54.268Z,98351.19
2023-04-12T10:30:30.724Z,98336.31
2023-04-12T10:33:03.653Z,98344.91
2023-04-12T10:35:50.672Z,98338.88
2023-04-12T10:38:18.047Z,98336.53
2023-04-12T10:41:17.884Z,98327.03
2023-04-12T10:43:49.839Z,98331.88
2023-04-12T10:46:45.857Z,98325.03
2023-04-12T10:49:17.096Z,98325.16
2023-04-12T10:52:09.206Z,98331.63
2023-04-12T10:54:36.569Z,98325.34
2023-04-12T10:57:05.531Z,98329.06
2023-04-12T10:59:59.483Z,98319.56
2023-04-12T11:02:26.805Z,98326.03
2023-04-12T11:05:09.816Z,98316.50
2023-04-12T11:07:54.404Z,98323.00
2023-04-12T11:10:39.920Z,98304.38
2023-04-12T11:13:09.716Z,98310.88
2023-04-12T11:15:39.943Z,98318.22
2023-04-12T11:18:12.385Z,98314.81
2023-04-12T11:20:40.779Z,98310.13
2023-04-12T11:23:10.641Z,98301.41
2023-04-12T11:25:38.598Z,98302.56
2023-04-12T11:28:14.095Z,98296.25
2023-04-12T11:30:58.106Z,98309.13
2023-04-12T11:33:51.368Z,98303.09
2023-04-12T11:36:18.425Z,98296.69
2023-04-12T11:38:47.527Z,98291.34
2023-04-12T11:41:15.059Z,98291.34
2023-04-12T11:43:42.580Z,98286.00
2023-04-12T11:46:09.860Z,98285.28
2023-04-12T11:48:38.782Z,98289.56
2023-04-12T11:51:25.220Z,98292.00
2023-04-12T11:53:54.120Z,98288.03
2023-04-12T11:56:21.570Z,98293.72
2023-04-12T11:58:48.856Z,98284.63
2023-04-12T12:01:17.119Z,98277.41
2023-04-12T12:03:44.962Z,98280.44
2023-04-12T12:06:12.946Z,98260.94
2023-04-12T12:08:40.428Z,98255.69
2023-04-12T12:11:08.861Z,98242.16
2023-04-12T12:13:59.234Z,98251.06
2023-04-12T12:16:29.188Z,98249.50
2023-04-12T12:18:57.195Z,98256.56
2023-04-12T12:21:26.199Z,98250.00
2023-04-12T12:23:53.245Z,98253.31
2023-04-12T12:26:30.373Z,98255.06
2023-04-12T12:29:00.338Z,98250.44
2023-04-12T12:31:28.327Z,98249.19
2023-04-12T12:34:01.000Z,98266.22
2023-04-12T12:36:33.822Z,98258.47
2023-04-12T12:39:10.412Z,98252.91
2023-04-12T12:41:38.910Z,98239.25
2023-04-12T12:44:07.780Z,98246.22
2023-04-12T12:49:04.748Z,98246.72
2023-04-12T12:51:31.952Z,98229.81
2023-04-12T12:53:59.046Z,98226.84
2023-04-12T12:56:26.542Z,98230.84
2023-04-12T12:58:53.499Z,98229.44
2023-04-12T13:01:20.672Z,98225.66
2023-04-12T13:03:47.861Z,98236.59
2023-04-12T13:06:14.957Z,98225.31
2023-04-12T13:08:41.893Z,98218.34
2023-04-12T13:11:08.912Z,98204.72
2023-04-12T13:13:36.452Z,98207.94
2023-04-12T13:16:03.804Z,98213.06
2023-04-12T13:18:31.292Z,98199.97
2023-04-12T13:20:58.438Z,98198.69
2023-04-12T13:23:25.624Z,98186.38
2023-04-12T13:25:53.042Z,98191.81
2023-04-12T13:28:20.686Z,98192.09
2023-04-12T13:30:48.637Z,98217.09
2023-04-12T13:33:20.112Z,98201.03
2023-04-12T13:35:48.850Z,98228.34
2023-04-12T13:38:15.853Z,98203.34
2023-04-12T13:40:42.910Z,98194.44
2023-04-12T13:43:09.850Z,98193.00
2023-04-12T13:45:37.120Z,98190.75
2023-04-12T13:48:04.209Z,98189.88
2023-04-12T13:50:31.172Z,98199.97
2023-04-12T13:52:58.183Z,98200.88
2023-04-12T13:55:25.304Z,98192.94
2023-04-12T13:57:52.282Z,98188.28
2023-04-12T14:00:20.059Z,98199.66
2023-04-12T14:02:47.150Z,98201.38
2023-04-12T14:05:14.161Z,98208.75
2023-04-12T14:07:41.098Z,98207.59
2023-04-12T14:10:10.149Z,98199.53
2023-04-12T14:12:37.147Z,98213.94
2023-04-12T14:15:05.783Z,98200.00
2023-04-12T14:17:33.113Z,98226.19
2023-04-12T14:20:00.479Z,98219.44
2023-04-12T14:22:27.945Z,98230.38
2023-04-12T14:24:55.134Z,98244.13
2023-04-12T14:27:22.324Z,98244.19
2023-04-12T14:29:49.442Z,98238.44
2023-04-12T14:32:16.549Z,98237.66
2023-04-12T14:39:40.132Z,98254.41
2023-04-12T14:42:07.533Z,98236.31
2023-04-12T14:44:34.545Z,98243.66
2023-04-12T14:47:01.504Z,98225.78
2023-04-12T14:49:31.658Z,98237.66
2023-04-12T14:52:00.348Z,98237.19
2023-04-12T14:54:27.360Z,98242.88
2023-04-12T14:56:56.132Z,98237.44
2023-04-12T14:59:23.630Z,98236.75
2023-04-12T15:01:52.419Z,98239.31
2023-04-12T15:04:20.214Z,98259.50
2023-04-12T15:06:47.368Z,98275.97
2023-04-12T15:09:17.432Z,98270.28
2023-04-12T15:11:46.173Z,98250.22
2023-04-12T15:14:18.033Z,98248.81
2023-04-12T15:16:46.598Z,98254.38
2023-04-12T15:19:20.268Z,98261.34
2023-04-12T15:21:51.080Z,98281.06
2023-04-12T15:24:27.152Z,98281.06
2023-04-12T15:26:54.194Z,98284.78
2023-04-12T15:29:22.761Z,98297.06
2023-04-12T15:31:50.981Z,98297.88
2023-04-12T15:34:18.242Z,98306.69
2023-04-12T15:36:45.846Z,98310.16
2023-04-12T15:39:14.651Z,98300.31
2023-04-12T15:41:42.701Z,98293.59
2023-04-12T15:44:14.137Z,98299.16
2023-04-12T15:46:56.042Z,98288.50
2023-04-12T15:49:27.186Z,98297.53
2023-04-12T15:51:56.927Z,98293.81
2023-04-12T15:54:24.234Z,98293.00
2023-04-12T15:56:51.200Z,98281.88
2023-04-12T15:59:18.778Z,98284.66
2023-04-12T16:01:47.213Z,98296.03
2023-04-12T16:04:16.138Z,98279.44
2023-04-12T16:06:43.186Z,98276.44
2023-04-12T16:09:12.029Z,98275.50
2023-04-12T16:11:38.968Z,98280.38
2023-04-12T16:14:05.969Z,98286.28
2023-04-12T16:16:33.491Z,98280.50
2023-04-12T16:19:01.079Z,98283.84
2023-04-12T16:21:30.178Z,98280.38
2023-04-12T16:23:57.167Z,98283.00
2023-04-12T16:26:24.201Z,98283.53
2023-04-12T16:28:53.148Z,98283.88
2023-04-12T16:31:21.190Z,98282.84
2023-04-12T16:33:51.718Z,98283.16
2023-04-12T16:36:23.348Z,98277.19
2023-04-12T16:38:59.175Z,98283.78
2023-04-12T16:41:26.447Z,98278.53
2023-04-12T16:43:54.996Z,98277.56
2023-04-12T16:46:22.207Z,98273.03
2023-04-12T16:48:49.562Z,98272.78
2023-04-12T16:51:17.038Z,98280.00
2023-04-12T16:53:44.092Z,98280.25
2023-04-12T16:56:11.007Z,98283.97
2023-04-12T16:58:37.914Z,98273.19
2023-04-12T17:01:05.061Z,98265.06
2023-04-12T17:03:32.373Z,98265.19
2023-04-12T17:05:59.480Z,98263.31
2023-04-12T17:08:26.446Z,98272.41
2023-04-12T17:10:54.335Z,98277.75
2023-04-12T17:13:21.318Z,98292.97
2023-04-12T17:15:48.445Z,98291.34
2023-04-12T17:18:15.724Z,98301.75
2023-04-12T17:20:42.956Z,98308.59
2023-04-12T17:23:10.294Z,98311.19
2023-04-12T17:25:37.862Z,98314.00
2023-04-12T17:28:05.337Z,98321.00
2023-04-12T17:30:32.666Z,98332.88
2023-04-12T17:33:01.677Z,98329.75
2023-04-12T17:35:29.051Z,98329.88
2023-04-12T17:37:56.376Z,98334.53
2023-04-12T17:40:23.409Z,98324.00
2023-04-12T17:42:50.445Z,98317.47
2023-04-12T17:45:19.162Z,98312.50
2023-04-12T17:47:46.161Z,98315.66
2023-04-12T17:50:13.936Z,98321.13
2023-04-12T17:52:40.974Z,98319.13
2023-04-12T17:55:12.764Z,98310.78
2023-04-12T17:57:40.202Z,98308.56
2023-04-12T18:00:14.179Z,98306.59
2023-04-12T18:02:43.322Z,98302.53
2023-04-12T18:05:11.151Z,98303.22
2023-04-12T18:07:39.749Z,98293.03
2023-04-12T18:10:09.486Z,98292.66
2023-04-12T18:12:38.500Z,98307.31
2023-04-12T18:15:08.203Z,98304.50
2023-04-12T18:17:35.760Z,98307.66
2023-04-12T18:20:04.821Z,98302.75
2023-04-12T18:22:31.810Z,98310.66
2023-04-12T18:24:58.809Z,98309.50
2023-04-12T18:27:25.787Z,98305.66
2023-04-12T18:29:52.835Z,98320.50
2023-04-12T18:32:19.937Z,98325.44
2023-04-12T18:34:46.870Z,98333.91
2023-04-12T18:37:13.808Z,98330.31
2023-04-12T18:39:42.654Z,98335.50
2023-04-12T18:42:09.594Z,98342.34
2023-04-12T18:44:37.690Z,98358.78
2023-04-12T18:47:04.752Z,98377.31
2023-04-12T18:49:31.682Z,98380.69
2023-04-12T18:51:58.858Z,98389.09
2023-04-12T18:54:27.759Z,98375.44
2023-04-12T18:56:55.070Z,98384.91
2023-04-12T18:59:22.156Z,98381.06
2023-04-12T19:01:49.274Z,98387.88
2023-04-12T19:04:16.717Z,98401.66
2023-04-12T19:06:45.124Z,98400.47
2023-04-12T19:09:12.140Z,98407.88
2023-04-12T19:11:39.545Z,98409.94
2023-04-12T19:14:07.533Z,98416.78
2023-04-12T19:16:35.498Z,98426.81
2023-04-12T19:19:02.823Z,98418.25
2023-04-12T19:21:29.834Z,98409.69
2023-04-12T19:23:57.104Z,98424.00
2023-04-12T19:26:24.155Z,98426.91
2023-04-12T19:28:55.209Z,98442.88
2023-04-12T19:31:23.545Z,98442.06
2023-04-12T19:33:50.978Z,98439.63
2023-04-12T19:36:18.132Z,98454.00
2023-04-12T19:38:47.737Z,98463.84
2023-04-12T19:41:17.102Z,98463.03
2023-04-12T19:43:44.110Z,98467.97
2023-04-12T19:46:11.684Z,98461.84
2023-04-12T19:48:38.747Z,98468.44
2023-04-12T19:51:06.011Z,98465.75
2023-04-12T19:53:33.909Z,98464.34
2023-04-12T19:56:03.964Z,98462.94
2023-04-12T19:58:32.042Z,98454.94
2023-04-12T20:01:02.107Z,98457.03
2023-04-12T20:03:29.965Z,98462.34
2023-04-12T20:05:58.879Z,98466.88
2023-04-12T20:08:29.371Z,98475.88
2023-04-12T20:10:56.639Z,98468.09
2023-04-12T20:13:23.666Z,98464.63
2023-04-12T20:15:51.084Z,98480.59
2023-04-12T20:18:18.046Z,98497.63
2023-04-12T20:20:45.332Z,98496.81
2023-04-12T20:23:13.819Z,98503.19
2023-04-12T20:25:41.651Z,98500.72
2023-04-12T20:28:09.374Z,98500.94
2023-04-12T20:30:37.027Z,98504.63
2023-04-12T20:33:04.582Z,98509.59
2023-04-12T20:35:32.183Z,98510.84
2023-04-12T20:38:01.704Z,98509.22
2023-04-12T20:40:30.291Z,98515.78
2023-04-12T20:42:57.412Z,98525.63
2023-04-12T20:45:24.509Z,98527.69
2023-04-12T20:47:51.872Z,98527.69
2023-04-12T20:50:22.787Z,98531.59
2023-04-12T20:52:52.111Z,98540.63
2023-04-12T20:55:19.613Z,98540.00
2023-04-12T20:57:46.665Z,98556.19
2023-04-12T21:00:18.801Z,98560.94
2023-04-12T21:02:46.404Z,98560.34
2023-04-12T21:05:14.837Z,98562.16
2023-04-12T21:07:41.767Z,98558.09
2023-04-12T21:10:12.142Z,98560.97
2023-04-12T21:12:41.104Z,98563.88
2023-04-12T21:15:09.242Z,98559.75
2023-04-12T21:17:37.011Z,98566.13
2023-04-12T21:20:09.463Z,98571.66
2023-04-12T21:22:36.461Z,98572.06
2023-04-12T21:25:03.549Z,98579.47
2023-04-12T21:27:30.497Z,98585.81
2023-04-12T21:29:58.077Z,98579.09
2023-04-12T21:32:25.139Z,98576.63
2023-04-12T21:34:52.082Z,98571.53
2023-04-12T21:37:21.987Z,98564.78
2023-04-12T21:39:48.950Z,98571.34
2023-04-12T21:42:16.212Z,98572.59
2023-04-12T21:44:43.293Z,98577.09
2023-04-12T21:47:10.214Z,98581.03
2023-04-12T21:49:37.139Z,98579.34
2023-04-12T21:52:04.387Z,98585.13
2023-04-12T21:54:33.227Z,98600.50
2023-04-12T21:57:00.203Z,98597.19
2023-04-12T21:59:27.136Z,98609.91
2023-04-12T22:01:54.227Z,98613.81
2023-04-12T22:04:21.347Z,98616.66
2023-04-12T22:06:50.692Z,98612.38
2023-04-12T22:09:18.660Z,98615.25
2023-04-12T22:11:46.486Z,98618.94
2023-04-12T22:14:13.393Z,98615.69
2023-04-12T22:16:40.349Z,98610.56
2023-04-12T22:19:07.428Z,98607.31
2023-04-12T22:21:34.492Z,98623.47
2023-04-12T22:24:01.772Z,98624.06
2023-04-12T22:26:28.937Z,98628.56
2023-04-12T22:28:55.899Z,98625.53
2023-04-12T22:31:23.158Z,98636.34
2023-04-12T22:33:54.743Z,98634.13
2023-04-12T22:36:22.292Z,98629.41
2023-04-12T22:38:49.175Z,98620.25
2023-04-12T22:41:17.081Z,98625.16
2023-04-12T22:43:47.619Z,98621.06
2023-04-12T22:46:16.372Z,98620.88
2023-04-12T22:48:47.871Z,98620.66
2023-04-12T22:51:15.338Z,98617.63
2023-04-12T22:53:43.271Z,98627.03
2023-04-12T22:56:11.083Z,98624.97
2023-04-12T22:58:40.013Z,98625.63
2023-04-12T23:01:07.334Z,98632.56
2023-04-12T23:03:34.453Z,98637.69
2023-04-12T23:06:01.888Z,98633.78
2023-04-12T23:08:29.095Z,98633.41
2023-04-12T23:11:02.821Z,98631.34
2023-04-12T23:13:34.786Z,98634.41
2023-04-12T23:16:07.513Z,98634.22
2023-04-12T23:18:34.527Z,98631.94
2023-04-12T23:21:01.737Z,98629.72
2023-04-12T23:23:28.819Z,98635.44
2023-04-12T23:25:55.825Z,98635.00
2023-04-12T23:28:25.742Z,98633.78
2023-04-12T23:30:52.684Z,98640.13
2023-04-12T23:33:21.374Z,98639.72
2023-04-12T23:35:52.104Z,98634.78
2023-04-12T23:38:32.142Z,98632.75
2023-04-12T23:41:04.082Z,98623.56
2023-04-12T23:43:32.593Z,98626.63
2023-04-12T23:46:00.321Z,98625.19
2023-04-12T23:48:27.955Z,98621.31
2023-04-12T23:50:54.892Z,98620.69
2023-04-12T23:53:21.981Z,98622.72
2023-04-12T23:55:51.799Z,98616.81
2023-04-12T23:58:19.382Z,98619.63
